Tropical Cyclones
[Index]
Main Index Home Page Stock Weather Photos Extreme Storms Discussion Storm News and Storm Chasing Reports Tropical Cyclones / Hurricanes / Typhoons Weather Data and Links Wild Fires / Bushfires Weather Observation Techniques Weather Picture Catalogue Tornado Pictures and Reports Stock Video Footage and DVDs for sale
Season 2005-2006 Tropical Cyclone HUBERT Track Map
Season 2005-2006 Summaries: [BoM-AU] [JTWC-AU] [JTWC-SIO] [JTWC-SPAC] [JTWC-SH]
<<- Previous TC | BoM 2005-2006 Season | Next TC ->>

click for intensity scale information  Lat/long Grid: Show Hide

 Date Labels: Show Hide

Bureau of Meteorology Tropical Cyclone Data

Name: HUBERT
Number: 901 / 200506_20

02 Apr 2006 18:00 UTC to 08 Apr 2006 12:00 UTC

    date/time    lat    long    hPa   cat  kts
2006-04-02 18   14.5   115.2   1004         20          
2006-04-03 00   14.5   115.0   1004         20          
2006-04-03 06   14.5   114.6   1000         25          
2006-04-03 12   14.4   114.4    998         25          
2006-04-03 18   14.1   114.3    996         25          
2006-04-04 00   13.9   114.5    996         25          
2006-04-04 06   14.1   115.2    996         25          
2006-04-04 12   14.5   115.8    996         25          
2006-04-04 18   15.1   116.3    996         25          
2006-04-05 00   15.6   116.6    996         25          
2006-04-05 06   16.3   116.7    994    1    30          
2006-04-05 12   16.8   116.3    990    1    35          
2006-04-05 18   17.2   116.1    988    1    40          
2006-04-06 00   17.6   115.9    984    2    45          
2006-04-06 06   18.3   115.6    980    2    50          
2006-04-06 12   18.8   115.3    980    2    50          
2006-04-06 18   19.4   115.0    980    2    50          
2006-04-07 00   20.0   114.9    980    2    50          
2006-04-07 03   20.4   115.1    980    2    50          
2006-04-07 06   20.8   115.3    982    2    50          
2006-04-07 09   21.2   115.6    986    1    40          
2006-04-07 12   21.3   115.7    990    1    35          
2006-04-07 15   21.4   115.6    994    1    30          
2006-04-07 18   21.5   115.5    994    1    30          
2006-04-08 00   21.8   115.4    996         25          
2006-04-08 06   22.0   115.4    998         20          
2006-04-08 12   22.2   115.7   1000         20          
Winds are 10-min average.

Tropical cyclone tracks developed by Michael Bath using data from the Bureau of Meteorology and Google Maps.


[Australian Severe Weather index] [Copyright Notice] [Email Contacts] [Search This Site] [Privacy Policy]
Document: tropical_cyclone_hubert.htm Updated: 29 June 2017